sensor_id;sensor_type;location;lat;lon;timestamp;P1;durP1;ratioP1;P2;durP2;ratioP2
24787;SDS011;12883;52.662;5.196;2022-07-12T00:01:05;5.22;;;5.22;;
24787;SDS011;12883;52.662;5.196;2022-07-12T00:03:30;5.28;;;5.28;;
24787;SDS011;12883;52.662;5.196;2022-07-12T00:05:56;4.93;;;4.93;;
24787;SDS011;12883;52.662;5.196;2022-07-12T00:08:22;5.13;;;5.13;;
24787;SDS011;12883;52.662;5.196;2022-07-12T00:10:47;5.18;;;5.18;;
24787;SDS011;12883;52.662;5.196;2022-07-12T00:13:13;5.07;;;5.07;;
24787;SDS011;12883;52.662;5.196;2022-07-12T00:15:40;4.68;;;4.68;;
24787;SDS011;12883;52.662;5.196;2022-07-12T00:18:05;4.60;;;4.60;;
24787;SDS011;12883;52.662;5.196;2022-07-12T00:20:31;4.50;;;4.50;;
24787;SDS011;12883;52.662;5.196;2022-07-12T00:22:56;5.45;;;5.45;;
24787;SDS011;12883;52.662;5.196;2022-07-12T00:25:21;6.32;;;6.32;;
24787;SDS011;12883;52.662;5.196;2022-07-12T00:27:47;6.75;;;6.75;;
24787;SDS011;12883;52.662;5.196;2022-07-12T00:30:12;6.47;;;6.47;;
24787;SDS011;12883;52.662;5.196;2022-07-12T00:32:37;6.90;;;6.90;;
24787;SDS011;12883;52.662;5.196;2022-07-12T00:35:03;7.07;;;7.07;;
24787;SDS011;12883;52.662;5.196;2022-07-12T00:37:30;7.82;;;7.82;;
24787;SDS011;12883;52.662;5.196;2022-07-12T00:39:56;7.65;;;7.65;;
24787;SDS011;12883;52.662;5.196;2022-07-12T00:42:22;7.60;;;7.60;;
24787;SDS011;12883;52.662;5.196;2022-07-12T00:44:48;7.30;;;7.30;;
24787;SDS011;12883;52.662;5.196;2022-07-12T00:52:32;5.90;;;5.90;;
24787;SDS011;12883;52.662;5.196;2022-07-12T00:54:58;7.00;;;7.00;;
24787;SDS011;12883;52.662;5.196;2022-07-12T00:57:23;6.43;;;6.43;;
24787;SDS011;12883;52.662;5.196;2022-07-12T00:59:48;5.78;;;5.78;;
24787;SDS011;12883;52.662;5.196;2022-07-12T01:02:15;5.03;;;5.03;;
24787;SDS011;12883;52.662;5.196;2022-07-12T01:04:40;5.72;;;5.72;;
24787;SDS011;12883;52.662;5.196;2022-07-12T01:07:08;5.20;;;5.20;;
24787;SDS011;12883;52.662;5.196;2022-07-12T01:09:33;5.00;;;5.00;;
24787;SDS011;12883;52.662;5.196;2022-07-12T01:11:59;5.05;;;5.05;;
24787;SDS011;12883;52.662;5.196;2022-07-12T01:14:24;5.22;;;5.22;;
24787;SDS011;12883;52.662;5.196;2022-07-12T01:16:50;5.22;;;5.22;;
24787;SDS011;12883;52.662;5.196;2022-07-12T01:19:18;4.10;;;4.10;;
24787;SDS011;12883;52.662;5.196;2022-07-12T01:21:46;4.53;;;4.53;;
24787;SDS011;12883;52.662;5.196;2022-07-12T01:24:13;5.35;;;5.35;;
24787;SDS011;12883;52.662;5.196;2022-07-12T01:26:40;4.55;;;4.55;;
24787;SDS011;12883;52.662;5.196;2022-07-12T01:29:06;5.03;;;5.03;;
24787;SDS011;12883;52.662;5.196;2022-07-12T01:31:33;5.15;;;5.15;;
24787;SDS011;12883;52.662;5.196;2022-07-12T01:34:01;5.03;;;5.03;;
24787;SDS011;12883;52.662;5.196;2022-07-12T01:36:27;4.85;;;4.85;;
24787;SDS011;12883;52.662;5.196;2022-07-12T01:38:53;4.80;;;4.80;;
24787;SDS011;12883;52.662;5.196;2022-07-12T01:41:18;5.60;;;5.60;;
24787;SDS011;12883;52.662;5.196;2022-07-12T01:43:44;5.50;;;5.50;;
24787;SDS011;12883;52.662;5.196;2022-07-12T01:46:09;5.78;;;5.78;;
24787;SDS011;12883;52.662;5.196;2022-07-12T01:48:35;5.93;;;5.93;;
24787;SDS011;12883;52.662;5.196;2022-07-12T01:51:00;6.13;;;6.13;;
24787;SDS011;12883;52.662;5.196;2022-07-12T01:53:26;6.00;;;6.00;;
24787;SDS011;12883;52.662;5.196;2022-07-12T01:55:52;6.40;;;6.40;;
24787;SDS011;12883;52.662;5.196;2022-07-12T01:58:17;5.78;;;5.78;;
24787;SDS011;12883;52.662;5.196;2022-07-12T02:00:43;6.10;;;6.10;;
24787;SDS011;12883;52.662;5.196;2022-07-12T02:03:16;5.72;;;5.72;;
24787;SDS011;12883;52.662;5.196;2022-07-12T02:05:42;5.88;;;5.88;;
24787;SDS011;12883;52.662;5.196;2022-07-12T02:08:07;5.43;;;5.43;;
24787;SDS011;12883;52.662;5.196;2022-07-12T02:10:33;5.80;;;5.80;;
24787;SDS011;12883;52.662;5.196;2022-07-12T02:13:02;5.82;;;5.82;;
24787;SDS011;12883;52.662;5.196;2022-07-12T02:15:28;5.55;;;5.55;;
24787;SDS011;12883;52.662;5.196;2022-07-12T02:17:53;5.38;;;5.38;;
24787;SDS011;12883;52.662;5.196;2022-07-12T02:20:19;5.55;;;5.55;;
24787;SDS011;12883;52.662;5.196;2022-07-12T02:22:44;5.40;;;5.40;;
24787;SDS011;12883;52.662;5.196;2022-07-12T02:25:09;5.28;;;5.28;;
24787;SDS011;12883;52.662;5.196;2022-07-12T02:27:35;5.47;;;5.47;;
24787;SDS011;12883;52.662;5.196;2022-07-12T02:30:00;6.13;;;6.13;;
24787;SDS011;12883;52.662;5.196;2022-07-12T02:32:26;5.95;;;5.95;;
24787;SDS011;12883;52.662;5.196;2022-07-12T02:34:52;6.28;;;6.28;;
24787;SDS011;12883;52.662;5.196;2022-07-12T02:37:17;5.65;;;5.65;;
24787;SDS011;12883;52.662;5.196;2022-07-12T02:39:43;6.68;;;6.68;;
24787;SDS011;12883;52.662;5.196;2022-07-12T02:42:08;6.10;;;6.10;;
24787;SDS011;12883;52.662;5.196;2022-07-12T02:44:33;6.75;;;6.75;;
24787;SDS011;12883;52.662;5.196;2022-07-12T02:46:59;6.03;;;6.03;;
24787;SDS011;12883;52.662;5.196;2022-07-12T02:49:25;5.75;;;5.75;;
24787;SDS011;12883;52.662;5.196;2022-07-12T02:51:51;6.30;;;6.30;;
24787;SDS011;12883;52.662;5.196;2022-07-12T02:54:16;6.15;;;6.15;;
24787;SDS011;12883;52.662;5.196;2022-07-12T02:56:41;6.10;;;6.10;;
24787;SDS011;12883;52.662;5.196;2022-07-12T02:59:07;5.60;;;5.60;;
24787;SDS011;12883;52.662;5.196;2022-07-12T03:01:32;6.35;;;6.35;;
24787;SDS011;12883;52.662;5.196;2022-07-12T03:03:57;6.35;;;6.35;;
24787;SDS011;12883;52.662;5.196;2022-07-12T03:06:23;6.20;;;6.20;;
24787;SDS011;12883;52.662;5.196;2022-07-12T03:08:48;6.18;;;6.18;;
24787;SDS011;12883;52.662;5.196;2022-07-12T03:11:14;6.07;;;6.07;;
24787;SDS011;12883;52.662;5.196;2022-07-12T03:13:39;6.03;;;6.03;;
24787;SDS011;12883;52.662;5.196;2022-07-12T03:16:04;5.53;;;5.53;;
24787;SDS011;12883;52.662;5.196;2022-07-12T03:18:30;5.15;;;5.15;;
24787;SDS011;12883;52.662;5.196;2022-07-12T03:20:55;5.97;;;5.97;;
24787;SDS011;12883;52.662;5.196;2022-07-12T03:23:21;5.32;;;5.32;;
24787;SDS011;12883;52.662;5.196;2022-07-12T03:25:46;5.13;;;5.13;;
24787;SDS011;12883;52.662;5.196;2022-07-12T03:28:12;5.80;;;5.80;;
24787;SDS011;12883;52.662;5.196;2022-07-12T03:30:37;6.03;;;6.03;;
24787;SDS011;12883;52.662;5.196;2022-07-12T03:33:03;5.90;;;5.90;;
24787;SDS011;12883;52.662;5.196;2022-07-12T03:35:28;5.65;;;5.65;;
24787;SDS011;12883;52.662;5.196;2022-07-12T03:37:54;5.78;;;5.78;;
24787;SDS011;12883;52.662;5.196;2022-07-12T03:40:20;5.82;;;5.82;;
24787;SDS011;12883;52.662;5.196;2022-07-12T03:42:46;6.68;;;6.68;;
24787;SDS011;12883;52.662;5.196;2022-07-12T03:45:13;5.90;;;5.90;;
24787;SDS011;12883;52.662;5.196;2022-07-12T03:47:42;5.65;;;5.65;;
24787;SDS011;12883;52.662;5.196;2022-07-12T03:50:10;5.70;;;5.70;;
24787;SDS011;12883;52.662;5.196;2022-07-12T03:52:37;6.30;;;6.30;;
24787;SDS011;12883;52.662;5.196;2022-07-12T03:55:03;6.25;;;6.25;;
24787;SDS011;12883;52.662;5.196;2022-07-12T03:57:29;6.22;;;6.22;;
24787;SDS011;12883;52.662;5.196;2022-07-12T03:59:55;5.85;;;5.85;;
24787;SDS011;12883;52.662;5.196;2022-07-12T04:02:21;6.25;;;6.25;;
24787;SDS011;12883;52.662;5.196;2022-07-12T04:04:47;6.30;;;6.30;;
24787;SDS011;12883;52.662;5.196;2022-07-12T04:07:12;5.97;;;5.97;;
24787;SDS011;12883;52.662;5.196;2022-07-12T04:09:38;5.72;;;5.72;;
24787;SDS011;12883;52.662;5.196;2022-07-12T04:12:03;6.43;;;6.43;;
24787;SDS011;12883;52.662;5.196;2022-07-12T04:14:29;6.65;;;6.65;;
24787;SDS011;12883;52.662;5.196;2022-07-12T04:16:55;6.25;;;6.25;;
24787;SDS011;12883;52.662;5.196;2022-07-12T04:19:21;6.82;;;6.82;;
24787;SDS011;12883;52.662;5.196;2022-07-12T04:21:52;5.93;;;5.93;;
24787;SDS011;12883;52.662;5.196;2022-07-12T04:24:21;6.38;;;6.38;;
24787;SDS011;12883;52.662;5.196;2022-07-12T04:26:46;6.13;;;6.13;;
24787;SDS011;12883;52.662;5.196;2022-07-12T04:29:12;6.57;;;6.57;;
24787;SDS011;12883;52.662;5.196;2022-07-12T04:31:37;6.95;;;6.95;;
24787;SDS011;12883;52.662;5.196;2022-07-12T04:34:03;7.05;;;7.05;;
24787;SDS011;12883;52.662;5.196;2022-07-12T04:36:28;6.75;;;6.75;;
24787;SDS011;12883;52.662;5.196;2022-07-12T04:38:53;7.47;;;7.47;;
24787;SDS011;12883;52.662;5.196;2022-07-12T04:41:19;8.10;;;8.10;;
24787;SDS011;12883;52.662;5.196;2022-07-12T04:43:44;7.65;;;7.65;;
24787;SDS011;12883;52.662;5.196;2022-07-12T04:46:10;7.43;;;7.43;;
24787;SDS011;12883;52.662;5.196;2022-07-12T04:48:35;7.45;;;7.45;;
24787;SDS011;12883;52.662;5.196;2022-07-12T04:51:02;6.95;;;6.95;;
24787;SDS011;12883;52.662;5.196;2022-07-12T04:53:27;7.03;;;7.03;;
24787;SDS011;12883;52.662;5.196;2022-07-12T04:55:56;6.82;;;6.82;;
24787;SDS011;12883;52.662;5.196;2022-07-12T04:58:22;7.60;;;7.60;;
24787;SDS011;12883;52.662;5.196;2022-07-12T05:00:48;7.45;;;7.45;;
24787;SDS011;12883;52.662;5.196;2022-07-12T05:03:16;7.63;;;7.63;;
24787;SDS011;12883;52.662;5.196;2022-07-12T05:05:42;7.32;;;7.32;;
24787;SDS011;12883;52.662;5.196;2022-07-12T05:08:08;8.20;;;8.20;;
24787;SDS011;12883;52.662;5.196;2022-07-12T05:10:33;7.95;;;7.95;;
24787;SDS011;12883;52.662;5.196;2022-07-12T05:12:59;8.40;;;8.40;;
24787;SDS011;12883;52.662;5.196;2022-07-12T05:15:25;8.95;;;8.95;;
24787;SDS011;12883;52.662;5.196;2022-07-12T05:17:50;9.10;;;9.10;;
24787;SDS011;12883;52.662;5.196;2022-07-12T05:20:16;8.63;;;8.63;;
24787;SDS011;12883;52.662;5.196;2022-07-12T05:22:41;9.45;;;9.45;;
24787;SDS011;12883;52.662;5.196;2022-07-12T05:25:07;9.40;;;9.40;;
24787;SDS011;12883;52.662;5.196;2022-07-12T05:27:33;8.85;;;8.85;;
24787;SDS011;12883;52.662;5.196;2022-07-12T05:29:59;9.30;;;9.30;;
24787;SDS011;12883;52.662;5.196;2022-07-12T05:32:24;8.93;;;8.93;;
24787;SDS011;12883;52.662;5.196;2022-07-12T05:34:50;9.25;;;9.25;;
24787;SDS011;12883;52.662;5.196;2022-07-12T05:37:15;8.82;;;8.82;;
24787;SDS011;12883;52.662;5.196;2022-07-12T05:39:41;9.00;;;9.00;;
24787;SDS011;12883;52.662;5.196;2022-07-12T05:42:06;8.95;;;8.95;;
24787;SDS011;12883;52.662;5.196;2022-07-12T05:44:31;8.88;;;8.88;;
24787;SDS011;12883;52.662;5.196;2022-07-12T05:46:57;8.98;;;8.98;;
24787;SDS011;12883;52.662;5.196;2022-07-12T05:49:22;8.50;;;8.50;;
24787;SDS011;12883;52.662;5.196;2022-07-12T05:51:48;8.35;;;8.35;;
24787;SDS011;12883;52.662;5.196;2022-07-12T05:54:31;8.88;;;8.88;;
24787;SDS011;12883;52.662;5.196;2022-07-12T05:56:58;7.78;;;7.78;;
24787;SDS011;12883;52.662;5.196;2022-07-12T05:59:23;7.28;;;7.28;;
24787;SDS011;12883;52.662;5.196;2022-07-12T06:01:48;6.65;;;6.65;;
24787;SDS011;12883;52.662;5.196;2022-07-12T06:04:14;7.18;;;7.18;;
24787;SDS011;12883;52.662;5.196;2022-07-12T06:06:40;6.35;;;6.35;;
24787;SDS011;12883;52.662;5.196;2022-07-12T06:09:05;6.47;;;6.47;;
24787;SDS011;12883;52.662;5.196;2022-07-12T06:11:30;5.93;;;5.93;;
24787;SDS011;12883;52.662;5.196;2022-07-12T06:13:57;5.85;;;5.85;;
24787;SDS011;12883;52.662;5.196;2022-07-12T06:16:23;6.03;;;6.03;;
24787;SDS011;12883;52.662;5.196;2022-07-12T06:18:48;5.72;;;5.72;;
24787;SDS011;12883;52.662;5.196;2022-07-12T06:21:13;5.72;;;5.72;;
24787;SDS011;12883;52.662;5.196;2022-07-12T06:23:39;5.22;;;5.22;;
24787;SDS011;12883;52.662;5.196;2022-07-12T06:26:04;5.38;;;5.38;;
24787;SDS011;12883;52.662;5.196;2022-07-12T06:28:30;5.82;;;5.82;;
24787;SDS011;12883;52.662;5.196;2022-07-12T06:30:55;5.28;;;5.28;;
24787;SDS011;12883;52.662;5.196;2022-07-12T06:33:20;5.07;;;5.07;;
24787;SDS011;12883;52.662;5.196;2022-07-12T06:35:46;5.43;;;5.43;;
24787;SDS011;12883;52.662;5.196;2022-07-12T06:38:11;5.80;;;5.80;;
24787;SDS011;12883;52.662;5.196;2022-07-12T06:40:36;5.82;;;5.82;;
24787;SDS011;12883;52.662;5.196;2022-07-12T06:43:02;5.70;;;5.70;;
24787;SDS011;12883;52.662;5.196;2022-07-12T06:45:27;5.95;;;5.95;;
24787;SDS011;12883;52.662;5.196;2022-07-12T06:47:53;6.10;;;6.10;;
24787;SDS011;12883;52.662;5.196;2022-07-12T06:50:18;6.05;;;6.05;;
24787;SDS011;12883;52.662;5.196;2022-07-12T06:52:44;5.20;;;5.20;;
24787;SDS011;12883;52.662;5.196;2022-07-12T06:55:10;5.35;;;5.35;;
24787;SDS011;12883;52.662;5.196;2022-07-12T06:57:35;6.25;;;6.25;;
24787;SDS011;12883;52.662;5.196;2022-07-12T07:00:02;6.18;;;6.18;;
24787;SDS011;12883;52.662;5.196;2022-07-12T07:02:31;5.22;;;5.22;;
24787;SDS011;12883;52.662;5.196;2022-07-12T07:04:57;5.60;;;5.60;;
24787;SDS011;12883;52.662;5.196;2022-07-12T07:07:22;5.80;;;5.80;;
24787;SDS011;12883;52.662;5.196;2022-07-12T07:09:48;4.80;;;4.80;;
24787;SDS011;12883;52.662;5.196;2022-07-12T07:12:13;5.72;;;5.72;;
24787;SDS011;12883;52.662;5.196;2022-07-12T07:14:38;5.60;;;5.60;;
24787;SDS011;12883;52.662;5.196;2022-07-12T07:17:04;5.25;;;5.25;;
24787;SDS011;12883;52.662;5.196;2022-07-12T07:19:29;5.68;;;5.68;;
24787;SDS011;12883;52.662;5.196;2022-07-12T07:21:55;5.20;;;5.20;;
24787;SDS011;12883;52.662;5.196;2022-07-12T07:24:20;5.18;;;5.18;;
24787;SDS011;12883;52.662;5.196;2022-07-12T07:26:47;5.10;;;5.10;;
24787;SDS011;12883;52.662;5.196;2022-07-12T07:29:13;5.13;;;5.13;;
24787;SDS011;12883;52.662;5.196;2022-07-12T07:31:57;5.55;;;5.55;;
24787;SDS011;12883;52.662;5.196;2022-07-12T07:34:22;5.40;;;5.40;;
24787;SDS011;12883;52.662;5.196;2022-07-12T07:36:49;4.85;;;4.85;;
24787;SDS011;12883;52.662;5.196;2022-07-12T07:39:17;4.72;;;4.72;;
24787;SDS011;12883;52.662;5.196;2022-07-12T07:41:42;5.03;;;5.03;;
24787;SDS011;12883;52.662;5.196;2022-07-12T07:44:08;4.30;;;4.30;;
24787;SDS011;12883;52.662;5.196;2022-07-12T07:46:33;4.93;;;4.93;;
24787;SDS011;12883;52.662;5.196;2022-07-12T07:48:59;5.22;;;5.22;;
24787;SDS011;12883;52.662;5.196;2022-07-12T07:51:24;5.05;;;5.05;;
24787;SDS011;12883;52.662;5.196;2022-07-12T07:53:50;4.85;;;4.85;;
24787;SDS011;12883;52.662;5.196;2022-07-12T07:56:15;5.30;;;5.30;;
24787;SDS011;12883;52.662;5.196;2022-07-12T07:58:40;5.65;;;5.65;;
24787;SDS011;12883;52.662;5.196;2022-07-12T08:01:06;5.22;;;5.22;;
24787;SDS011;12883;52.662;5.196;2022-07-12T08:03:31;5.65;;;5.65;;
24787;SDS011;12883;52.662;5.196;2022-07-12T08:05:56;6.05;;;6.05;;
24787;SDS011;12883;52.662;5.196;2022-07-12T08:08:23;5.80;;;5.80;;
24787;SDS011;12883;52.662;5.196;2022-07-12T08:10:50;5.45;;;5.45;;
24787;SDS011;12883;52.662;5.196;2022-07-12T08:13:15;5.10;;;5.10;;
24787;SDS011;12883;52.662;5.196;2022-07-12T08:15:41;5.90;;;5.90;;
24787;SDS011;12883;52.662;5.196;2022-07-12T08:18:06;5.85;;;5.85;;
24787;SDS011;12883;52.662;5.196;2022-07-12T08:20:32;5.75;;;5.75;;
24787;SDS011;12883;52.662;5.196;2022-07-12T08:22:57;6.20;;;6.20;;
24787;SDS011;12883;52.662;5.196;2022-07-12T08:25:22;6.22;;;6.22;;
24787;SDS011;12883;52.662;5.196;2022-07-12T08:27:48;7.10;;;7.10;;
24787;SDS011;12883;52.662;5.196;2022-07-12T08:30:13;6.85;;;6.85;;
24787;SDS011;12883;52.662;5.196;2022-07-12T08:32:46;6.65;;;6.65;;
24787;SDS011;12883;52.662;5.196;2022-07-12T08:35:12;7.18;;;7.18;;
24787;SDS011;12883;52.662;5.196;2022-07-12T08:37:39;7.18;;;7.18;;
24787;SDS011;12883;52.662;5.196;2022-07-12T08:40:05;6.57;;;6.57;;
24787;SDS011;12883;52.662;5.196;2022-07-12T08:42:31;7.43;;;7.43;;
24787;SDS011;12883;52.662;5.196;2022-07-12T08:44:57;6.80;;;6.80;;
24787;SDS011;12883;52.662;5.196;2022-07-12T08:47:23;7.35;;;7.35;;
24787;SDS011;12883;52.662;5.196;2022-07-12T08:52:38;7.60;;;7.60;;
24787;SDS011;12883;52.662;5.196;2022-07-12T08:55:16;8.32;;;8.32;;
24787;SDS011;12883;52.662;5.196;2022-07-12T08:57:51;7.47;;;7.47;;
24787;SDS011;12883;52.662;5.196;2022-07-12T09:00:18;9.57;;;9.57;;
24787;SDS011;12883;52.662;5.196;2022-07-12T09:02:48;8.15;;;8.15;;
24787;SDS011;12883;52.662;5.196;2022-07-12T09:05:25;8.82;;;8.82;;
24787;SDS011;12883;52.662;5.196;2022-07-12T09:07:51;8.18;;;8.18;;
24787;SDS011;12883;52.662;5.196;2022-07-12T09:10:27;8.80;;;8.80;;
24787;SDS011;12883;52.662;5.196;2022-07-12T09:12:53;8.40;;;8.40;;
24787;SDS011;12883;52.662;5.196;2022-07-12T09:15:19;9.35;;;9.35;;
24787;SDS011;12883;52.662;5.196;2022-07-12T09:17:46;9.25;;;9.25;;
24787;SDS011;12883;52.662;5.196;2022-07-12T09:20:20;9.45;;;9.45;;
24787;SDS011;12883;52.662;5.196;2022-07-12T09:22:56;9.02;;;9.02;;
24787;SDS011;12883;52.662;5.196;2022-07-12T09:25:24;9.18;;;9.18;;
24787;SDS011;12883;52.662;5.196;2022-07-12T09:27:50;9.13;;;9.13;;
24787;SDS011;12883;52.662;5.196;2022-07-12T09:30:18;8.73;;;8.73;;
24787;SDS011;12883;52.662;5.196;2022-07-12T09:33:00;9.52;;;9.52;;
24787;SDS011;12883;52.662;5.196;2022-07-12T09:38:37;9.60;;;9.60;;
24787;SDS011;12883;52.662;5.196;2022-07-12T09:41:22;9.77;;;9.77;;
24787;SDS011;12883;52.662;5.196;2022-07-12T09:43:48;8.52;;;8.52;;
24787;SDS011;12883;52.662;5.196;2022-07-12T09:46:15;8.07;;;8.07;;
24787;SDS011;12883;52.662;5.196;2022-07-12T09:48:41;8.18;;;8.18;;
24787;SDS011;12883;52.662;5.196;2022-07-12T09:51:14;8.85;;;8.85;;
24787;SDS011;12883;52.662;5.196;2022-07-12T09:53:43;8.43;;;8.43;;
24787;SDS011;12883;52.662;5.196;2022-07-12T09:56:10;8.65;;;8.65;;
24787;SDS011;12883;52.662;5.196;2022-07-12T09:58:43;8.35;;;8.35;;
24787;SDS011;12883;52.662;5.196;2022-07-12T10:01:15;7.05;;;7.05;;
24787;SDS011;12883;52.662;5.196;2022-07-12T10:03:41;8.45;;;8.45;;
24787;SDS011;12883;52.662;5.196;2022-07-12T10:06:08;7.63;;;7.63;;
24787;SDS011;12883;52.662;5.196;2022-07-12T10:08:34;7.63;;;7.63;;
24787;SDS011;12883;52.662;5.196;2022-07-12T10:11:00;7.97;;;7.97;;
24787;SDS011;12883;52.662;5.196;2022-07-12T10:13:26;7.40;;;7.40;;
24787;SDS011;12883;52.662;5.196;2022-07-12T10:15:56;7.38;;;7.38;;
24787;SDS011;12883;52.662;5.196;2022-07-12T10:18:24;6.88;;;6.88;;
24787;SDS011;12883;52.662;5.196;2022-07-12T10:20:50;6.60;;;6.60;;
24787;SDS011;12883;52.662;5.196;2022-07-12T10:25:42;6.50;;;6.50;;
24787;SDS011;12883;52.662;5.196;2022-07-12T10:28:07;6.45;;;6.45;;
24787;SDS011;12883;52.662;5.196;2022-07-12T10:30:43;6.15;;;6.15;;
24787;SDS011;12883;52.662;5.196;2022-07-12T10:33:17;5.80;;;5.80;;
24787;SDS011;12883;52.662;5.196;2022-07-12T10:36:03;5.00;;;5.00;;
24787;SDS011;12883;52.662;5.196;2022-07-12T10:38:34;6.15;;;6.15;;
24787;SDS011;12883;52.662;5.196;2022-07-12T10:41:16;5.20;;;5.20;;
24787;SDS011;12883;52.662;5.196;2022-07-12T10:43:53;5.40;;;5.40;;
24787;SDS011;12883;52.662;5.196;2022-07-12T10:46:30;5.10;;;5.10;;
24787;SDS011;12883;52.662;5.196;2022-07-12T10:57:43;4.85;;;4.85;;
24787;SDS011;12883;52.662;5.196;2022-07-12T11:00:11;4.53;;;4.53;;
24787;SDS011;12883;52.662;5.196;2022-07-12T11:02:39;4.90;;;4.90;;
24787;SDS011;12883;52.662;5.196;2022-07-12T11:05:05;5.70;;;5.70;;
24787;SDS011;12883;52.662;5.196;2022-07-12T11:07:30;6.03;;;6.03;;
24787;SDS011;12883;52.662;5.196;2022-07-12T11:09:56;5.97;;;5.97;;
24787;SDS011;12883;52.662;5.196;2022-07-12T11:12:28;5.47;;;5.47;;
24787;SDS011;12883;52.662;5.196;2022-07-12T11:14:55;5.90;;;5.90;;
24787;SDS011;12883;52.662;5.196;2022-07-12T11:17:25;5.72;;;5.72;;
24787;SDS011;12883;52.662;5.196;2022-07-12T11:20:02;5.18;;;5.18;;
24787;SDS011;12883;52.662;5.196;2022-07-12T11:22:29;5.00;;;5.00;;
24787;SDS011;12883;52.662;5.196;2022-07-12T11:24:55;5.22;;;5.22;;
24787;SDS011;12883;52.662;5.196;2022-07-12T11:27:21;5.60;;;5.60;;
24787;SDS011;12883;52.662;5.196;2022-07-12T11:29:56;5.28;;;5.28;;
24787;SDS011;12883;52.662;5.196;2022-07-12T11:32:32;4.40;;;4.40;;
24787;SDS011;12883;52.662;5.196;2022-07-12T11:34:58;4.57;;;4.57;;
24787;SDS011;12883;52.662;5.196;2022-07-12T11:37:24;5.00;;;5.00;;
24787;SDS011;12883;52.662;5.196;2022-07-12T11:39:49;4.82;;;4.82;;
24787;SDS011;12883;52.662;5.196;2022-07-12T11:42:16;4.60;;;4.60;;
24787;SDS011;12883;52.662;5.196;2022-07-12T11:44:45;4.80;;;4.80;;
24787;SDS011;12883;52.662;5.196;2022-07-12T11:47:11;4.20;;;4.20;;
24787;SDS011;12883;52.662;5.196;2022-07-12T11:49:37;5.05;;;5.05;;
24787;SDS011;12883;52.662;5.196;2022-07-12T11:52:09;4.93;;;4.93;;
24787;SDS011;12883;52.662;5.196;2022-07-12T11:54:37;4.50;;;4.50;;
24787;SDS011;12883;52.662;5.196;2022-07-12T11:57:06;4.32;;;4.32;;
24787;SDS011;12883;52.662;5.196;2022-07-12T11:59:33;4.80;;;4.80;;
24787;SDS011;12883;52.662;5.196;2022-07-12T12:02:16;3.70;;;3.70;;
24787;SDS011;12883;52.662;5.196;2022-07-12T12:04:50;4.43;;;4.43;;
24787;SDS011;12883;52.662;5.196;2022-07-12T12:07:17;3.90;;;3.90;;
24787;SDS011;12883;52.662;5.196;2022-07-12T12:12:44;4.32;;;4.32;;
24787;SDS011;12883;52.662;5.196;2022-07-12T12:15:11;3.78;;;3.78;;
24787;SDS011;12883;52.662;5.196;2022-07-12T12:17:42;3.90;;;3.90;;
24787;SDS011;12883;52.662;5.196;2022-07-12T12:20:13;3.33;;;3.33;;
24787;SDS011;12883;52.662;5.196;2022-07-12T12:22:41;3.85;;;3.85;;
24787;SDS011;12883;52.662;5.196;2022-07-12T12:25:07;3.03;;;3.03;;
24787;SDS011;12883;52.662;5.196;2022-07-12T12:27:45;3.60;;;3.60;;
24787;SDS011;12883;52.662;5.196;2022-07-12T12:30:13;2.95;;;2.95;;
24787;SDS011;12883;52.662;5.196;2022-07-12T12:32:46;2.95;;;2.95;;
24787;SDS011;12883;52.662;5.196;2022-07-12T12:35:17;2.50;;;2.50;;
24787;SDS011;12883;52.662;5.196;2022-07-12T12:37:51;3.20;;;3.20;;
24787;SDS011;12883;52.662;5.196;2022-07-12T12:40:21;3.00;;;3.00;;
24787;SDS011;12883;52.662;5.196;2022-07-12T12:42:51;4.10;;;4.10;;
24787;SDS011;12883;52.662;5.196;2022-07-12T12:45:18;3.75;;;3.75;;
24787;SDS011;12883;52.662;5.196;2022-07-12T12:50:43;2.83;;;2.83;;
24787;SDS011;12883;52.662;5.196;2022-07-12T12:55:44;2.88;;;2.88;;
24787;SDS011;12883;52.662;5.196;2022-07-12T12:58:11;2.72;;;2.72;;
24787;SDS011;12883;52.662;5.196;2022-07-12T13:00:38;3.17;;;3.17;;
24787;SDS011;12883;52.662;5.196;2022-07-12T13:03:05;2.70;;;2.70;;
24787;SDS011;12883;52.662;5.196;2022-07-12T13:05:31;2.40;;;2.40;;
24787;SDS011;12883;52.662;5.196;2022-07-12T13:07:57;2.63;;;2.63;;
24787;SDS011;12883;52.662;5.196;2022-07-12T13:10:23;3.00;;;3.00;;
24787;SDS011;12883;52.662;5.196;2022-07-12T13:12:49;2.88;;;2.88;;
24787;SDS011;12883;52.662;5.196;2022-07-12T13:15:16;3.28;;;3.28;;
24787;SDS011;12883;52.662;5.196;2022-07-12T13:17:41;2.90;;;2.90;;
24787;SDS011;12883;52.662;5.196;2022-07-12T13:20:07;2.65;;;2.65;;
24787;SDS011;12883;52.662;5.196;2022-07-12T13:22:33;2.33;;;2.33;;
24787;SDS011;12883;52.662;5.196;2022-07-12T13:24:59;2.30;;;2.30;;
24787;SDS011;12883;52.662;5.196;2022-07-12T13:27:24;2.03;;;2.03;;
24787;SDS011;12883;52.662;5.196;2022-07-12T13:29:51;2.58;;;2.58;;
24787;SDS011;12883;52.662;5.196;2022-07-12T13:32:17;2.10;;;2.10;;
24787;SDS011;12883;52.662;5.196;2022-07-12T13:34:42;1.60;;;1.60;;
24787;SDS011;12883;52.662;5.196;2022-07-12T13:37:08;2.30;;;2.30;;
24787;SDS011;12883;52.662;5.196;2022-07-12T13:39:33;1.40;;;1.40;;
24787;SDS011;12883;52.662;5.196;2022-07-12T13:42:17;2.22;;;2.22;;
24787;SDS011;12883;52.662;5.196;2022-07-12T13:44:43;2.00;;;2.00;;
24787;SDS011;12883;52.662;5.196;2022-07-12T13:47:08;2.08;;;2.08;;
24787;SDS011;12883;52.662;5.196;2022-07-12T13:49:34;1.67;;;1.67;;
24787;SDS011;12883;52.662;5.196;2022-07-12T13:51:59;2.00;;;2.00;;
24787;SDS011;12883;52.662;5.196;2022-07-12T13:54:26;2.53;;;2.53;;
24787;SDS011;12883;52.662;5.196;2022-07-12T13:56:52;2.10;;;2.10;;
24787;SDS011;12883;52.662;5.196;2022-07-12T13:59:18;2.58;;;2.58;;
24787;SDS011;12883;52.662;5.196;2022-07-12T14:01:44;2.20;;;2.20;;
24787;SDS011;12883;52.662;5.196;2022-07-12T14:04:09;2.22;;;2.22;;
24787;SDS011;12883;52.662;5.196;2022-07-12T14:06:34;2.40;;;2.40;;
24787;SDS011;12883;52.662;5.196;2022-07-12T14:09:00;2.10;;;2.10;;
24787;SDS011;12883;52.662;5.196;2022-07-12T14:11:25;1.67;;;1.67;;
24787;SDS011;12883;52.662;5.196;2022-07-12T14:13:51;1.60;;;1.60;;
24787;SDS011;12883;52.662;5.196;2022-07-12T14:16:16;1.60;;;1.60;;
24787;SDS011;12883;52.662;5.196;2022-07-12T14:18:43;1.52;;;1.52;;
24787;SDS011;12883;52.662;5.196;2022-07-12T14:21:08;1.65;;;1.65;;
24787;SDS011;12883;52.662;5.196;2022-07-12T14:23:35;1.50;;;1.50;;
24787;SDS011;12883;52.662;5.196;2022-07-12T14:26:01;1.70;;;1.70;;
24787;SDS011;12883;52.662;5.196;2022-07-12T14:28:26;1.80;;;1.80;;
24787;SDS011;12883;52.662;5.196;2022-07-12T14:30:52;2.10;;;2.10;;
24787;SDS011;12883;52.662;5.196;2022-07-12T14:33:18;2.15;;;2.15;;
24787;SDS011;12883;52.662;5.196;2022-07-12T14:35:44;2.83;;;2.83;;
24787;SDS011;12883;52.662;5.196;2022-07-12T14:38:09;4.68;;;4.68;;
24787;SDS011;12883;52.662;5.196;2022-07-12T14:40:35;5.28;;;5.28;;
24787;SDS011;12883;52.662;5.196;2022-07-12T14:43:00;6.07;;;6.07;;
24787;SDS011;12883;52.662;5.196;2022-07-12T14:45:26;7.00;;;7.00;;
24787;SDS011;12883;52.662;5.196;2022-07-12T14:47:51;8.52;;;8.52;;
24787;SDS011;12883;52.662;5.196;2022-07-12T14:50:18;8.07;;;8.07;;
24787;SDS011;12883;52.662;5.196;2022-07-12T14:52:43;7.63;;;7.63;;
24787;SDS011;12883;52.662;5.196;2022-07-12T14:55:09;8.45;;;8.45;;
24787;SDS011;12883;52.662;5.196;2022-07-12T14:57:34;9.32;;;9.32;;
24787;SDS011;12883;52.662;5.196;2022-07-12T15:00:00;9.10;;;9.10;;
24787;SDS011;12883;52.662;5.196;2022-07-12T15:02:25;9.95;;;9.95;;
24787;SDS011;12883;52.662;5.196;2022-07-12T15:04:53;10.85;;;10.85;;
24787;SDS011;12883;52.662;5.196;2022-07-12T15:07:19;10.38;;;10.38;;
24787;SDS011;12883;52.662;5.196;2022-07-12T15:09:44;8.85;;;8.85;;
24787;SDS011;12883;52.662;5.196;2022-07-12T15:12:10;10.38;;;10.38;;
24787;SDS011;12883;52.662;5.196;2022-07-12T15:14:36;9.70;;;9.70;;
24787;SDS011;12883;52.662;5.196;2022-07-12T15:17:01;9.57;;;9.57;;